Time;durP1;ratioP1;P1;durP2;ratioP2;P2;SDS_P1;SDS_P2;PMS_P1;PMS_P2;Temp;Humidity;BMP_temperature;BMP_pressure;BME280_temperature;BME280_humidity;BME280_pressure;Samples;Min_cycle;Max_cycle;Signal;HPM_P1;HPM_P2
2022/08/24 00:00:52;;;;;;;0.20;0.20;;;21.90;95.90;;;;;;5072917;28;20048;-66
2022/08/24 00:03:18;;;;;;;0.50;0.30;;;21.80;95.90;;;;;;5072890;28;20032;-66
2022/08/24 00:05:44;;;;;;;0.57;0.20;;;21.90;95.70;;;;;;5072814;28;20072;-66
2022/08/24 00:08:10;;;;;;;0.68;0.40;;;21.90;96.10;;;;;;5073021;28;20060;-66
2022/08/24 00:10:36;;;;;;;1.10;0.47;;;21.80;96.00;;;;;;5073244;28;20411;-66
2022/08/24 00:13:02;;;;;;;0.32;0.20;;;21.90;95.70;;;;;;5073025;28;20047;-66
2022/08/24 00:15:28;;;;;;;1.65;0.47;;;21.90;95.90;;;;;;5073300;28;20381;-66
2022/08/24 00:17:53;;;;;;;0.30;0.30;;;21.90;95.80;;;;;;5073016;28;20039;-66
2022/08/24 00:20:19;;;;;;;0.38;0.30;;;21.90;95.60;;;;;;5072762;28;20075;-66
2022/08/24 00:22:48;;;;;;;0.70;0.28;;;21.90;95.80;;;;;;5073142;28;20032;-66
2022/08/24 00:25:14;;;;;;;0.20;0.20;;;21.80;95.90;;;;;;5073085;28;20064;-66
2022/08/24 00:27:41;;;;;;;0.22;0.20;;;21.80;96.00;;;;;;5071291;28;20036;-66
2022/08/24 00:30:14;;;;;;;2.65;0.30;;;21.80;95.90;;;;;;5061037;28;20527;-66
2022/08/24 00:32:41;;;;;;;0.15;0.10;;;21.70;96.10;;;;;;5049503;28;20040;-66
2022/08/24 00:35:08;;;;;;;0.20;0.20;;;21.70;95.90;;;;;;5051510;28;20045;-66
2022/08/24 00:37:35;;;;;;;0.20;0.20;;;21.70;96.10;;;;;;5057072;28;20044;-66
2022/08/24 00:40:03;;;;;;;0.40;0.20;;;21.70;96.20;;;;;;5072748;28;20045;-66
2022/08/24 00:42:28;;;;;;;0.22;0.22;;;21.60;96.10;;;;;;5072713;28;20051;-66
2022/08/24 00:44:54;;;;;;;0.30;0.28;;;21.50;96.50;;;;;;5072818;28;20048;-66
2022/08/24 00:47:32;;;;;;;0.43;0.43;;;21.40;96.50;;;;;;5072866;28;20032;-66
2022/08/24 00:50:04;;;;;;;3.03;0.20;;;21.40;96.20;;;;;;5072918;28;20461;-66
2022/08/24 00:52:38;;;;;;;1.10;1.00;;;21.30;96.50;;;;;;5072642;28;20396;-66
2022/08/24 00:55:14;;;;;;;0.68;0.25;;;21.40;96.50;;;;;;5071384;28;20052;-66
2022/08/24 00:57:43;;;;;;;0.35;0.28;;;21.50;96.40;;;;;;5072370;28;20041;-66
2022/08/24 01:00:21;;;;;;;0.93;0.30;;;21.40;96.40;;;;;;5072659;28;20051;-66
2022/08/24 01:02:53;;;;;;;0.20;0.20;;;21.40;96.40;;;;;;5072699;28;20119;-66
2022/08/24 01:05:18;;;;;;;0.40;0.20;;;21.30;96.70;;;;;;5072534;28;20082;-66
2022/08/24 01:07:49;;;;;;;1.40;0.30;;;21.10;97.00;;;;;;5072544;28;20036;-66
2022/08/24 01:10:25;;;;;;;;;;;21.10;96.90;;;;;;5076761;28;20075;-66
2022/08/24 01:13:04;;;;;;;1.60;0.40;;;21.20;97.00;;;;;;5076356;28;19946;-66
2022/08/24 01:15:36;;;;;;;0.80;0.35;;;21.10;97.10;;;;;;5076082;28;20049;-66
2022/08/24 01:20:53;;;;;;;0.98;0.45;;;20.90;97.60;;;;;;5075919;28;20039;-66
2022/08/24 01:23:39;;;;;;;0.63;0.40;;;20.80;97.80;;;;;;5076030;28;20044;-66
2022/08/24 01:26:08;;;;;;;0.20;0.20;;;20.80;97.70;;;;;;5076117;28;20063;-66
2022/08/24 01:28:35;;;;;;;0.20;0.20;;;20.80;97.70;;;;;;5076092;28;20039;-66
2022/08/24 01:31:01;;;;;;;1.10;0.45;;;20.70;98.00;;;;;;5076002;28;20052;-66
2022/08/24 01:33:30;;;;;;;0.30;0.20;;;20.60;98.10;;;;;;5075946;28;20040;-66
2022/08/24 01:36:04;;;;;;;0.52;0.30;;;20.60;98.20;;;;;;5075964;28;20102;-66
2022/08/24 01:38:31;;;;;;;0.40;0.25;;;20.60;98.30;;;;;;5075837;28;20029;-66
2022/08/24 01:41:00;;;;;;;1.45;0.38;;;20.60;98.60;;;;;;5075772;28;20051;-66
2022/08/24 01:43:26;;;;;;;0.80;0.47;;;20.60;98.40;;;;;;5075744;28;20040;-66
2022/08/24 01:45:52;;;;;;;0.55;0.32;;;20.60;98.70;;;;;;5075463;28;20048;-66
2022/08/24 01:48:19;;;;;;;0.50;0.40;;;20.60;98.80;;;;;;5075639;28;20063;-66
2022/08/24 01:50:45;;;;;;;0.68;0.30;;;20.50;98.90;;;;;;5075989;28;20040;-66
2022/08/24 01:53:11;;;;;;;1.15;0.65;;;20.50;98.40;;;;;;5075597;28;20040;-66
2022/08/24 01:55:38;;;;;;;0.47;0.35;;;20.60;98.40;;;;;;5075382;28;20028;-66
2022/08/24 01:58:04;;;;;;;1.70;0.32;;;20.50;98.60;;;;;;5075509;28;20056;-66
2022/08/24 02:00:31;;;;;;;1.20;0.38;;;20.50;99.10;;;;;;5075656;28;20051;-66
2022/08/24 02:02:57;;;;;;;4.85;0.40;;;20.60;98.90;;;;;;5075553;28;20052;-66
2022/08/24 02:05:23;;;;;;;1.60;0.40;;;20.50;99.20;;;;;;5075436;28;20051;-66
2022/08/24 02:07:50;;;;;;;0.20;0.20;;;20.60;99.20;;;;;;5074319;28;20484;-66
2022/08/24 02:10:18;;;;;;;0.43;0.40;;;20.40;99.20;;;;;;5055343;28;20040;-66
2022/08/24 02:12:56;;;;;;;3.20;0.55;;;20.60;98.50;;;;;;5055291;28;20124;-66
2022/08/24 02:15:27;;;;;;;0.60;0.40;;;20.70;98.40;;;;;;5055333;28;20079;-66
2022/08/24 02:17:53;;;;;;;0.65;0.47;;;20.70;98.60;;;;;;5055159;28;20041;-66
2022/08/24 02:20:20;;;;;;;0.50;0.40;;;20.70;98.40;;;;;;5053660;28;20033;-66
2022/08/24 02:22:47;;;;;;;0.43;0.40;;;20.70;98.30;;;;;;5055210;28;20041;-66
2022/08/24 02:25:32;;;;;;;0.68;0.38;;;20.60;98.80;;;;;;5055100;28;20462;-66
2022/08/24 02:28:00;;;;;;;0.43;0.30;;;20.60;98.70;;;;;;5055006;28;20556;-66
2022/08/24 02:31:20;;;;;;;0.60;0.47;;;20.40;99.10;;;;;;5054871;28;20071;-66
2022/08/24 02:37:07;;;;;;;0.50;0.40;;;20.10;99.60;;;;;;5054916;28;20094;-66
2022/08/24 02:43:06;;;;;;;0.57;0.20;;;20.40;99.10;;;;;;5053023;28;20071;-66
2022/08/24 02:45:45;;;;;;;0.88;0.57;;;20.20;99.30;;;;;;5054546;28;20044;-66
2022/08/24 02:48:14;;;;;;;1.05;0.47;;;20.00;99.60;;;;;;5054427;28;20048;-66
2022/08/24 02:54:04;;;;;;;1.80;1.05;;;20.00;99.90;;;;;;5054584;28;20075;-66
2022/08/24 02:56:30;;;;;;;1.30;0.50;;;19.90;99.70;;;;;;5054442;28;20078;-66
2022/08/24 02:58:56;;;;;;;0.40;0.32;;;19.90;99.90;;;;;;5054470;28;20041;-66
2022/08/24 03:01:23;;;;;;;0.70;0.60;;;19.90;99.70;;;;;;5054416;28;20037;-66
2022/08/24 03:03:48;;;;;;;1.00;0.60;;;19.70;99.90;;;;;;5054070;28;20075;-66
2022/08/24 03:06:14;;;;;;;1.08;0.75;;;19.70;99.90;;;;;;5052890;28;20072;-66
2022/08/24 03:08:40;;;;;;;1.50;0.60;;;19.60;99.90;;;;;;5054163;28;20036;-65
2022/08/24 03:11:07;;;;;;;4.00;0.55;;;19.60;99.90;;;;;;5054118;28;20090;-65
2022/08/24 03:13:33;;;;;;;0.95;0.50;;;19.80;99.60;;;;;;5052894;28;20111;-66
2022/08/24 03:15:59;;;;;;;0.70;0.57;;;20.00;99.40;;;;;;5053985;28;20053;-66
2022/08/24 03:18:25;;;;;;;0.65;0.40;;;19.90;99.10;;;;;;5053985;28;20040;-66
2022/08/24 03:20:53;;;;;;;4.28;1.05;;;20.00;99.30;;;;;;5053943;28;20538;-66
2022/08/24 03:23:18;;;;;;;0.77;0.70;;;20.00;99.60;;;;;;5053940;28;20033;-66
2022/08/24 03:25:44;;;;;;;1.20;0.82;;;19.80;99.40;;;;;;5062728;28;20072;-66
2022/08/24 03:28:11;;;;;;;1.08;0.77;;;19.70;99.00;;;;;;5073722;28;20403;-66
2022/08/24 03:30:38;;;;;;;1.38;0.88;;;19.60;99.40;;;;;;5073786;28;20533;-66
2022/08/24 03:33:05;;;;;;;1.10;0.80;;;19.50;99.80;;;;;;5073459;28;20047;-66
2022/08/24 03:35:32;;;;;;;1.05;0.70;;;19.50;99.30;;;;;;5073488;28;20056;-66
2022/08/24 03:37:58;;;;;;;0.93;0.70;;;19.60;99.00;;;;;;5073395;28;20496;-66
2022/08/24 03:40:24;;;;;;;1.00;0.80;;;19.70;99.40;;;;;;5073373;28;20482;-66
2022/08/24 03:42:51;;;;;;;1.50;0.80;;;19.40;99.50;;;;;;5073474;28;20046;-66
2022/08/24 03:45:17;;;;;;;1.85;0.90;;;19.60;99.20;;;;;;5073520;28;20120;-66
2022/08/24 03:47:44;;;;;;;0.82;0.68;;;19.60;99.10;;;;;;5073524;28;20463;-66
2022/08/24 03:50:11;;;;;;;0.73;0.63;;;19.60;99.30;;;;;;5073056;28;20131;-66
2022/08/24 03:52:37;;;;;;;1.38;0.80;;;19.60;99.10;;;;;;5073044;28;20040;-66
2022/08/24 03:55:04;;;;;;;2.38;0.93;;;19.60;99.60;;;;;;5072935;28;20093;-66
2022/08/24 03:57:31;;;;;;;1.73;1.25;;;19.50;99.50;;;;;;5072990;28;20630;-66
2022/08/24 03:59:57;;;;;;;1.00;0.85;;;19.40;99.30;;;;;;5073402;28;20036;-66
2022/08/24 04:02:23;;;;;;;1.65;1.23;;;19.40;99.40;;;;;;5073318;28;20431;-66
2022/08/24 04:04:49;;;;;;;0.80;0.70;;;19.50;98.50;;;;;;5073531;28;20139;-65
2022/08/24 04:07:15;;;;;;;2.90;1.08;;;19.70;98.40;;;;;;5073221;28;20807;-66
2022/08/24 04:09:41;;;;;;;3.25;1.10;;;19.50;98.40;;;;;;5073181;28;20075;-66
2022/08/24 04:12:07;;;;;;;5.85;1.50;;;19.50;98.50;;;;;;5073252;28;20111;-66
2022/08/24 04:14:33;;;;;;;1.55;1.10;;;19.40;98.90;;;;;;5073050;28;20064;-66
2022/08/24 04:16:59;;;;;;;2.53;1.23;;;19.10;99.30;;;;;;5072949;28;20155;-66
2022/08/24 04:19:26;;;;;;;1.77;1.23;;;19.20;99.20;;;;;;5072878;28;20040;-65
2022/08/24 04:21:52;;;;;;;1.65;1.17;;;19.20;99.50;;;;;;5072907;28;20115;-66
2022/08/24 04:24:19;;;;;;;1.20;1.10;;;18.80;99.50;;;;;;5072693;28;20476;-66
2022/08/24 04:26:45;;;;;;;4.00;0.90;;;18.60;99.70;;;;;;5072550;28;20066;-66
2022/08/24 04:29:12;;;;;;;3.45;1.30;;;;;;;;;;5072903;28;20048;-66
2022/08/24 04:31:41;;;;;;;1.60;1.25;;;18.50;99.90;;;;;;5071394;28;20396;-66
2022/08/24 04:34:09;;;;;;;2.13;1.70;;;;;;;;;;5060994;28;20124;-66
2022/08/24 04:36:35;;;;;;;1.75;1.35;;;18.40;99.90;;;;;;5051869;28;20529;-66
2022/08/24 04:39:01;;;;;;;2.30;0.98;;;18.20;99.90;;;;;;5052762;28;20064;-66
2022/08/24 04:41:27;;;;;;;1.73;1.23;;;18.40;99.90;;;;;;5051145;28;20538;-66
2022/08/24 04:43:53;;;;;;;1.27;1.10;;;18.60;99.90;;;;;;5054381;28;20043;-66
2022/08/24 04:46:19;;;;;;;7.15;1.20;;;18.60;99.90;;;;;;5056879;28;20037;-65
2022/08/24 04:48:47;;;;;;;3.38;1.00;;;18.60;99.90;;;;;;5056889;28;20036;-66
2022/08/24 04:51:16;;;;;;;1.42;0.93;;;18.60;99.90;;;;;;5056804;28;20045;-65
2022/08/24 04:53:44;;;;;;;1.52;1.08;;;18.50;99.90;;;;;;5056648;28;20094;-66
2022/08/24 04:56:13;;;;;;;2.50;1.48;;;18.40;99.90;;;;;;5056665;28;20056;-66
2022/08/24 04:58:38;;;;;;;3.25;1.65;;;18.50;99.90;;;;;;5056576;28;20037;-65
2022/08/24 05:01:25;;;;;;;2.63;1.10;;;18.60;99.90;;;;;;5056649;28;20048;-66
2022/08/24 05:03:53;;;;;;;1.85;1.17;;;18.60;99.90;;;;;;5056578;28;20045;-66
2022/08/24 05:06:20;;;;;;;2.30;0.90;;;18.30;99.90;;;;;;5056349;28;20037;-66
2022/08/24 05:08:46;;;;;;;1.90;1.10;;;18.40;99.90;;;;;;5056177;28;20041;-66
2022/08/24 05:11:13;;;;;;;2.17;1.33;;;18.50;99.80;;;;;;5056357;28;20060;-65
2022/08/24 05:13:40;;;;;;;2.50;1.30;;;18.70;99.90;;;;;;5056208;28;20060;-66
2022/08/24 05:16:13;;;;;;;1.25;0.90;;;18.80;99.90;;;;;;5056215;28;20059;-66
2022/08/24 05:18:39;;;;;;;1.75;1.08;;;18.70;99.90;;;;;;5056346;28;20041;-66
2022/08/24 05:21:10;;;;;;;1.88;1.17;;;18.70;99.90;;;;;;5056335;28;20039;-66
2022/08/24 05:23:38;;;;;;;1.83;1.05;;;18.70;99.90;;;;;;5056125;28;20051;-66
2022/08/24 05:26:14;;;;;;;1.58;1.15;;;18.90;99.80;;;;;;5056068;28;20032;-66
2022/08/24 05:28:41;;;;;;;1.38;1.00;;;18.90;99.70;;;;;;5056074;28;20504;-66
2022/08/24 05:31:19;;;;;;;1.20;0.90;;;19.10;99.30;;;;;;5058228;28;20045;-66
2022/08/24 05:33:47;;;;;;;1.27;1.00;;;19.00;99.70;;;;;;5054761;28;20045;-66
2022/08/24 05:36:21;;;;;;;2.88;1.13;;;19.10;99.80;;;;;;5055382;28;20052;-66
2022/08/24 05:42:09;;;;;;;1.88;1.02;;;19.20;99.90;;;;;;5055654;28;20116;-66
2022/08/24 05:44:35;;;;;;;1.30;1.00;;;19.20;99.90;;;;;;5055743;28;20112;-65
2022/08/24 05:47:02;;;;;;;1.33;0.82;;;19.40;99.90;;;;;;5055410;28;20500;-65
2022/08/24 05:49:40;;;;;;;1.10;0.80;;;19.20;99.90;;;;;;5055696;28;20048;-65
2022/08/24 05:52:06;;;;;;;1.98;1.20;;;19.50;99.90;;;;;;5055682;28;20037;-66
2022/08/24 05:54:32;;;;;;;1.77;1.23;;;19.80;99.90;;;;;;5055401;28;20060;-66
2022/08/24 05:57:03;;;;;;;2.53;1.25;;;19.80;99.90;;;;;;5055434;28;20083;-65
2022/08/24 05:59:29;;;;;;;;;;;19.90;99.90;;;;;;5055938;28;20090;-65
2022/08/24 06:01:55;;;;;;;1.17;0.65;;;20.10;99.50;;;;;;5055452;28;19917;-66
2022/08/24 06:04:21;;;;;;;3.00;1.25;;;20.20;99.30;;;;;;5055443;28;20041;-66
2022/08/24 06:06:48;;;;;;;1.67;1.17;;;20.50;99.90;;;;;;5055381;28;20103;-65
2022/08/24 06:09:15;;;;;;;1.70;1.23;;;21.10;99.30;;;;;;5055160;28;20045;-66
2022/08/24 06:11:41;;;;;;;1.05;0.85;;;21.50;97.50;;;;;;5055217;28;20048;-66
2022/08/24 06:14:12;;;;;;;1.65;1.15;;;21.90;98.50;;;;;;5055038;28;20037;-66
2022/08/24 06:16:41;;;;;;;2.15;0.98;;;22.10;97.80;;;;;;5054960;28;20053;-66
2022/08/24 06:19:08;;;;;;;1.48;0.80;;;22.50;98.10;;;;;;5055108;28;20041;-65
2022/08/24 06:21:34;;;;;;;6.22;1.13;;;22.60;99.20;;;;;;5055196;28;20500;-66
2022/08/24 06:24:00;;;;;;;0.65;0.65;;;22.70;98.30;;;;;;5054940;28;20087;-66
2022/08/24 06:29:12;;;;;;;1.73;0.93;;;22.70;97.90;;;;;;5074728;28;20557;-65
2022/08/24 06:31:40;;;;;;;2.95;1.05;;;22.60;97.70;;;;;;5074762;28;20036;-65
2022/08/24 06:34:14;;;;;;;2.53;1.10;;;22.50;97.90;;;;;;5074744;28;20059;-65
2022/08/24 06:36:40;;;;;;;0.73;0.70;;;22.70;97.90;;;;;;5074712;28;20048;-65
2022/08/24 06:39:07;;;;;;;3.42;1.10;;;22.80;98.30;;;;;;5074772;28;20131;-66
2022/08/24 06:41:34;;;;;;;1.08;0.98;;;22.90;98.40;;;;;;5074747;28;20044;-66
2022/08/24 06:44:00;;;;;;;1.05;0.70;;;23.30;98.30;;;;;;5074772;28;20039;-66
2022/08/24 06:46:27;;;;;;;1.33;1.00;;;23.40;97.50;;;;;;5074566;28;20036;-66
2022/08/24 06:48:53;;;;;;;1.83;0.98;;;23.70;97.50;;;;;;5074323;28;20032;-66
2022/08/24 06:51:21;;;;;;;1.85;0.90;;;23.90;96.20;;;;;;5074230;28;20032;-66
2022/08/24 06:53:49;;;;;;;1.23;0.82;;;23.90;96.70;;;;;;5074299;28;20585;-66
2022/08/24 06:56:17;;;;;;;1.02;0.80;;;24.20;96.90;;;;;;5074330;28;20098;-66
2022/08/24 06:58:43;;;;;;;1.95;0.98;;;24.50;95.90;;;;;;5074159;28;20032;-66
2022/08/24 07:01:10;;;;;;;1.05;0.93;;;23.90;96.20;;;;;;5074012;28;20574;-66
2022/08/24 07:03:36;;;;;;;0.93;0.82;;;23.70;98.40;;;;;;5073977;28;20060;-66
2022/08/24 07:06:03;;;;;;;1.85;0.90;;;23.80;98.40;;;;;;5073702;28;20040;-66
2022/08/24 07:08:29;;;;;;;1.48;0.93;;;23.90;97.80;;;;;;5074277;28;20044;-66
2022/08/24 07:10:55;;;;;;;1.42;0.90;;;23.90;96.90;;;;;;5074213;28;20037;-66
2022/08/24 07:13:21;;;;;;;3.35;1.08;;;23.90;95.90;;;;;;5074098;28;20047;-65
2022/08/24 07:15:49;;;;;;;4.22;1.20;;;23.90;95.90;;;;;;5073865;28;20070;-66
2022/08/24 07:18:16;;;;;;;1.55;0.90;;;24.30;95.50;;;;;;5074170;28;20455;-66
2022/08/24 07:20:43;;;;;;;1.83;1.15;;;24.50;95.30;;;;;;5073733;28;20115;-66
2022/08/24 07:23:13;;;;;;;4.78;1.10;;;24.70;95.20;;;;;;5073619;28;20032;-66
2022/08/24 07:25:40;;;;;;;1.30;0.90;;;24.60;94.80;;;;;;5073788;28;20037;-66
2022/08/24 07:28:05;;;;;;;1.38;0.90;;;24.40;95.70;;;;;;5073266;28;20036;-66
2022/08/24 07:30:31;;;;;;;1.45;0.98;;;24.40;95.50;;;;;;5072680;28;20043;-66
2022/08/24 07:32:57;;;;;;;1.23;1.08;;;24.40;95.70;;;;;;5073652;28;20044;-65
2022/08/24 07:35:25;;;;;;;1.75;1.40;;;24.90;94.10;;;;;;5072233;28;20150;-66
2022/08/24 07:37:52;;;;;;;1.38;0.82;;;25.00;94.40;;;;;;5073619;28;20504;-66
2022/08/24 07:40:17;;;;;;;1.67;1.10;;;25.30;94.60;;;;;;5073033;28;20127;-66
2022/08/24 07:42:47;;;;;;;0.90;0.70;;;25.50;94.60;;;;;;5073251;28;20173;-66
2022/08/24 07:45:13;;;;;;;1.90;1.05;;;25.80;93.70;;;;;;5073293;28;20049;-66
2022/08/24 07:47:39;;;;;;;1.17;0.80;;;26.00;93.10;;;;;;5073281;28;20048;-66
2022/08/24 07:50:06;;;;;;;2.45;1.40;;;26.40;92.40;;;;;;5073453;28;20496;-66
2022/08/24 07:52:32;;;;;;;1.98;1.10;;;25.90;92.70;;;;;;5073468;28;20086;-66
2022/08/24 07:54:57;;;;;;;1.17;1.08;;;26.00;92.00;;;;;;5073288;28;20036;-66
2022/08/24 07:57:23;;;;;;;1.30;1.13;;;25.70;90.90;;;;;;5073280;28;20059;-66
2022/08/24 07:59:49;;;;;;;1.25;1.08;;;25.80;91.60;;;;;;5073206;28;20142;-66
2022/08/24 08:02:15;;;;;;;1.42;1.05;;;25.90;91.30;;;;;;5073225;28;20048;-66
2022/08/24 08:04:42;;;;;;;0.82;0.80;;;26.20;91.60;;;;;;5073563;28;20127;-66
2022/08/24 08:07:08;;;;;;;1.63;1.15;;;26.10;91.20;;;;;;5073185;28;20036;-66
2022/08/24 08:09:37;;;;;;;1.30;0.90;;;;;;;;;;5073214;28;20055;-66
2022/08/24 08:12:02;;;;;;;1.40;1.08;;;26.80;90.90;;;;;;5073110;28;20580;-66
2022/08/24 08:14:28;;;;;;;1.42;0.98;;;26.50;90.30;;;;;;5073070;28;20048;-66
2022/08/24 08:16:54;;;;;;;1.52;1.20;;;26.30;90.00;;;;;;5073067;28;20143;-67
2022/08/24 08:19:20;;;;;;;2.25;1.00;;;26.50;90.70;;;;;;5073141;28;20043;-66
2022/08/24 08:24:36;;;;;;;2.03;0.80;;;26.70;90.10;;;;;;5072992;28;20091;-66
2022/08/24 08:27:02;;;;;;;2.47;1.00;;;27.10;89.90;;;;;;5072484;28;20095;-67
2022/08/24 08:29:31;;;;;;;1.27;0.90;;;26.90;89.00;;;;;;5065677;28;20524;-66
2022/08/24 08:31:57;;;;;;;1.83;1.10;;;27.40;89.80;;;;;;5069837;28;20051;-67
2022/08/24 08:34:23;;;;;;;2.92;1.00;;;27.50;88.40;;;;;;5070515;28;20028;-66
2022/08/24 08:36:50;;;;;;;3.15;1.10;;;27.70;88.70;;;;;;5069513;28;20048;-67
2022/08/24 08:39:18;;;;;;;0.98;0.88;;;27.60;87.10;;;;;;5059584;28;20044;-67
2022/08/24 08:42:05;;;;;;;1.38;0.90;;;27.40;87.00;;;;;;5070738;28;20135;-66
2022/08/24 08:45:10;;;;;;;2.42;0.88;;;27.40;87.20;;;;;;5072809;28;20048;-67
2022/08/24 08:47:51;;;;;;;0.90;0.80;;;27.90;87.80;;;;;;5072640;28;20449;-67
2022/08/24 08:50:27;;;;;;;2.88;1.50;;;28.30;87.20;;;;;;5072824;28;20430;-67
2022/08/24 08:53:21;;;;;;;3.97;1.20;;;27.70;85.00;;;;;;5072836;28;20048;-67
2022/08/24 08:55:52;;;;;;;1.40;1.05;;;28.00;85.20;;;;;;5072494;28;20085;-67
2022/08/24 08:58:21;;;;;;;3.10;0.93;;;28.00;86.90;;;;;;5072403;28;20480;-66
2022/08/24 09:01:18;;;;;;;1.70;0.98;;;28.30;85.80;;;;;;5072418;28;20403;-67
2022/08/24 09:04:11;;;;;;;1.40;1.00;;;28.50;86.20;;;;;;5072360;28;20040;-66
2022/08/24 09:06:45;;;;;;;1.70;1.25;;;28.30;84.70;;;;;;5072273;28;20495;-66
2022/08/24 09:09:56;;;;;;;1.30;1.00;;;28.60;84.20;;;;;;5072452;28;20049;-66
2022/08/24 09:12:46;;;;;;;5.35;2.75;;;28.80;83.00;;;;;;5070261;28;20412;-66
2022/08/24 09:15:29;;;;;;;1.77;1.17;;;28.90;83.00;;;;;;5072501;28;20044;-67
2022/08/24 09:18:32;;;;;;;1.40;0.85;;;28.20;83.10;;;;;;5072529;28;20403;-66
2022/08/24 09:21:20;;;;;;;1.30;1.08;;;28.40;82.90;;;;;;5072218;28;20398;-67
2022/08/24 09:23:55;;;;;;;2.08;0.80;;;27.10;82.40;;;;;;5072311;28;20125;-66
2022/08/24 09:26:43;;;;;;;1.38;1.05;;;27.60;82.40;;;;;;5072501;28;20043;-67
2022/08/24 09:29:13;;;;;;;1.77;0.82;;;28.50;82.50;;;;;;5072796;28;20048;-67
2022/08/24 09:31:51;;;;;;;1.45;0.95;;;28.40;80.60;;;;;;5076026;28;20552;-66
2022/08/24 09:34:29;;;;;;;1.60;1.20;;;28.80;82.40;;;;;;5076032;28;20040;-67
2022/08/24 09:37:26;;;;;;;1.90;1.27;;;28.80;81.20;;;;;;5075831;28;20055;-67
2022/08/24 09:40:03;;;;;;;2.80;1.20;;;28.90;79.90;;;;;;5075883;28;20032;-67
2022/08/24 09:43:27;;;;;;;0.82;0.70;;;29.30;82.40;;;;;;5075385;28;21803;-67
2022/08/24 09:46:10;;;;;;;2.60;1.30;;;;;;;;;;5040526;28;20585;-67
2022/08/24 09:48:54;;;;;;;1.08;0.80;;;29.10;78.20;;;;;;5055833;28;20037;-67
2022/08/24 09:51:42;;;;;;;1.35;0.75;;;28.80;79.00;;;;;;5055859;28;20106;-67
2022/08/24 09:54:25;;;;;;;6.20;1.10;;;28.80;79.70;;;;;;5055657;28;20044;-66
2022/08/24 09:56:54;;;;;;;1.42;0.82;;;28.90;78.20;;;;;;5054300;28;20045;-66
2022/08/24 09:59:26;;;;;;;1.85;1.00;;;29.00;78.30;;;;;;5054474;28;20037;-66
2022/08/24 10:01:54;;;;;;;0.77;0.70;;;29.10;78.50;;;;;;5055461;28;20044;-66
2022/08/24 10:04:30;;;;;;;2.45;1.00;;;28.60;76.00;;;;;;5055342;28;20036;-66
2022/08/24 10:07:24;;;;;;;1.38;0.90;;;28.50;75.80;;;;;;5055329;28;20099;-66
2022/08/24 10:10:19;;;;;;;4.47;1.00;;;28.10;74.70;;;;;;5054971;28;20041;-67
2022/08/24 10:13:06;;;;;;;2.20;1.10;;;28.70;75.00;;;;;;5054715;28;20036;-66
2022/08/24 10:16:16;;;;;;;1.25;0.85;;;28.60;75.80;;;;;;5055149;28;20094;-66
2022/08/24 10:19:05;;;;;;;;;;;28.50;75.60;;;;;;5055509;28;20080;-67
2022/08/24 10:21:39;;;;;;;6.78;1.02;;;28.20;76.50;;;;;;5054854;28;19908;-66
2022/08/24 10:24:16;;;;;;;1.45;0.93;;;28.80;76.40;;;;;;5065921;28;20037;-66
2022/08/24 10:26:45;;;;;;;1.48;0.80;;;28.90;75.50;;;;;;5061364;28;20083;-66
2022/08/24 10:29:37;;;;;;;1.30;1.20;;;28.30;75.00;;;;;;5054740;28;20068;-66
2022/08/24 10:32:21;;;;;;;0.98;0.88;;;28.20;74.40;;;;;;5054506;28;20044;-66
2022/08/24 10:34:56;;;;;;;2.13;0.90;;;28.70;74.40;;;;;;5054795;28;20531;-66
2022/08/24 10:37:38;;;;;;;1.55;0.90;;;28.60;74.30;;;;;;5054934;28;20072;-66
2022/08/24 10:40:10;;;;;;;1.10;1.00;;;28.70;75.30;;;;;;5054564;28;20132;-66
2022/08/24 10:45:43;;;;;;;1.10;1.00;;;29.10;74.50;;;;;;5067537;28;20097;-67
2022/08/24 10:48:31;;;;;;;1.23;1.00;;;29.20;73.50;;;;;;5074661;28;20502;-67
2022/08/24 10:51:18;;;;;;;1.65;0.88;;;29.20;74.00;;;;;;5074223;28;20033;-67
2022/08/24 10:53:49;;;;;;;4.13;1.00;;;29.10;75.50;;;;;;5054415;28;20622;-66
2022/08/24 10:56:18;;;;;;;1.90;1.30;;;28.80;74.20;;;;;;5054403;28;20048;-66
2022/08/24 10:58:55;;;;;;;1.77;0.93;;;29.10;73.80;;;;;;5054677;28;20061;-66
2022/08/24 11:01:51;;;;;;;2.08;1.23;;;28.70;74.80;;;;;;5066103;28;20048;-66
2022/08/24 11:04:27;;;;;;;1.05;0.90;;;29.00;75.30;;;;;;5073927;28;20395;-66
2022/08/24 11:07:13;;;;;;;3.25;1.60;;;29.40;74.90;;;;;;5071307;28;20049;-66
2022/08/24 11:09:57;;;;;;;1.85;1.20;;;;;;;;;;5054126;28;20049;-66
2022/08/24 11:12:32;;;;;;;1.10;0.98;;;29.20;79.20;;;;;;5071519;28;20526;-65
2022/08/24 11:15:22;;;;;;;1.30;0.90;;;28.80;83.00;;;;;;5073545;28;20059;-65
2022/08/24 11:18:00;;;;;;;2.17;0.93;;;29.00;83.00;;;;;;5073904;28;20135;-65
2022/08/24 11:20:38;;;;;;;2.03;1.08;;;29.20;82.60;;;;;;5073884;28;20075;-65
2022/08/24 11:23:14;;;;;;;1.23;1.02;;;29.30;82.10;;;;;;5073756;28;20044;-66
2022/08/24 11:25:53;;;;;;;1.92;0.98;;;29.30;81.20;;;;;;5071237;28;20082;-66
2022/08/24 11:28:39;;;;;;;3.97;1.65;;;29.00;81.70;;;;;;5060312;28;20070;-66
2022/08/24 11:31:12;;;;;;;2.40;1.10;;;28.90;90.10;;;;;;5067559;28;20518;-66
2022/08/24 11:33:48;;;;;;;2.50;1.38;;;28.70;85.10;;;;;;5067918;28;20048;-66
2022/08/24 11:36:22;;;;;;;0.85;0.80;;;28.80;74.80;;;;;;5053262;28;20407;-66
2022/08/24 11:39:14;;;;;;;1.67;1.20;;;28.80;74.10;;;;;;5058095;28;20037;-66
2022/08/24 11:41:49;;;;;;;1.20;0.90;;;29.00;73.50;;;;;;5051810;28;20090;-66
2022/08/24 11:44:37;;;;;;;1.90;1.10;;;29.10;74.30;;;;;;5063365;28;20043;-66
2022/08/24 11:47:12;;;;;;;2.70;0.90;;;28.90;73.80;;;;;;5070957;28;20496;-66
2022/08/24 11:49:47;;;;;;;1.58;1.20;;;28.70;72.50;;;;;;5072660;28;20526;-66
2022/08/24 11:52:46;;;;;;;3.40;1.33;;;29.00;73.80;;;;;;5070731;28;20036;-66
2022/08/24 11:55:40;;;;;;;2.83;1.38;;;28.90;72.80;;;;;;5070442;28;20047;-66
2022/08/24 11:58:28;;;;;;;3.03;1.25;;;28.90;72.70;;;;;;5070048;28;20051;-66
2022/08/24 12:01:01;;;;;;;1.98;1.40;;;29.00;72.70;;;;;;5069684;28;20036;-66
2022/08/24 12:04:04;;;;;;;1.63;1.10;;;28.90;71.90;;;;;;5071314;28;20049;-66
2022/08/24 12:06:34;;;;;;;1.58;1.10;;;29.00;71.30;;;;;;5071913;28;20036;-66
2022/08/24 12:09:31;;;;;;;1.85;1.48;;;29.20;72.40;;;;;;5071665;28;20079;-66
2022/08/24 12:12:13;;;;;;;1.90;1.10;;;29.30;70.50;;;;;;5070351;28;20036;-66
2022/08/24 12:15:02;;;;;;;1.20;1.08;;;29.20;71.90;;;;;;5071810;28;20029;-67
2022/08/24 12:17:45;;;;;;;1.65;1.10;;;29.10;69.20;;;;;;5071959;28;20392;-67
2022/08/24 12:20:43;;;;;;;3.13;1.30;;;28.90;70.00;;;;;;5071002;28;20053;-67
2022/08/24 12:23:28;;;;;;;1.95;1.10;;;29.00;70.70;;;;;;5063381;28;20043;-67
2022/08/24 12:26:02;;;;;;;1.40;1.25;;;;;;;;;;5060992;28;20048;-68
2022/08/24 12:28:37;;;;;;;1.23;1.02;;;29.00;94.40;;;;;;5055611;28;20496;-68
2022/08/24 12:31:20;;;;;;;1.45;1.13;;;29.00;77.30;;;;;;5049486;28;20123;-68
2022/08/24 12:33:56;;;;;;;2.55;1.40;;;29.20;89.60;;;;;;5053622;28;20136;-71
2022/08/24 12:36:34;;;;;;;1.55;1.00;;;29.20;82.90;;;;;;5057366;28;20076;-68
2022/08/24 12:39:18;;;;;;;2.08;1.42;;;29.30;70.80;;;;;;5070533;28;20427;-66
2022/08/24 12:42:07;;;;;;;1.92;1.35;;;28.60;71.20;;;;;;5070541;28;20044;-67
2022/08/24 12:44:52;;;;;;;1.55;1.10;;;28.90;70.90;;;;;;5064402;28;20037;-68
2022/08/24 12:47:40;;;;;;;1.67;1.27;;;29.20;73.70;;;;;;5072431;28;20040;-67
2022/08/24 12:50:31;;;;;;;1.48;1.13;;;29.20;69.50;;;;;;5072179;28;20423;-67
2022/08/24 12:53:20;;;;;;;2.20;1.30;;;29.00;68.60;;;;;;5070745;28;20040;-68
2022/08/24 12:56:12;;;;;;;2.17;1.10;;;28.80;68.80;;;;;;5068758;28;20066;-68
2022/08/24 12:58:59;;;;;;;1.20;1.10;;;29.20;68.30;;;;;;5070546;28;20051;-68
2022/08/24 13:01:32;;;;;;;2.60;1.23;;;29.30;68.20;;;;;;5070626;28;20410;-67
2022/08/24 13:04:14;;;;;;;1.55;1.17;;;29.10;67.00;;;;;;5060036;28;20040;-68
2022/08/24 13:06:51;;;;;;;3.90;1.27;;;29.20;68.00;;;;;;5056685;28;20115;-68
2022/08/24 13:10:03;;;;;;;2.63;1.40;;;29.00;68.30;;;;;;5060432;28;20056;-67
2022/08/24 13:12:44;;;;;;;1.90;1.10;;;29.30;67.80;;;;;;5070071;28;21412;-68
2022/08/24 13:15:27;;;;;;;1.45;0.95;;;29.50;66.70;;;;;;5075245;28;20037;-68
2022/08/24 13:18:09;;;;;;;2.22;0.98;;;29.40;67.20;;;;;;5074904;28;20040;-68
2022/08/24 13:20:43;;;;;;;2.13;0.80;;;29.20;66.20;;;;;;5058197;28;20037;-66
2022/08/24 13:23:14;;;;;;;1.77;1.10;;;29.20;66.40;;;;;;5054277;28;20033;-68
2022/08/24 13:25:49;;;;;;;3.15;1.20;;;29.30;66.00;;;;;;5053899;28;20041;-69
2022/08/24 13:28:20;;;;;;;1.25;1.00;;;29.00;65.20;;;;;;5054454;28;20045;-68
2022/08/24 13:30:58;;;;;;;1.52;1.13;;;29.10;65.10;;;;;;5052811;28;20583;-68
2022/08/24 13:33:45;;;;;;;1.42;0.95;;;29.20;71.50;;;;;;5054279;28;20033;-67
2022/08/24 13:36:30;;;;;;;2.33;1.17;;;29.10;69.50;;;;;;5053743;28;20098;-68
2022/08/24 13:39:28;;;;;;;1.27;1.10;;;28.70;65.40;;;;;;5052566;28;20124;-67
2022/08/24 13:42:32;;;;;;;1.52;1.05;;;28.70;65.20;;;;;;5059088;28;20044;-67
2022/08/24 13:45:13;;;;;;;1.45;1.00;;;28.90;64.90;;;;;;5075155;28;20090;-67
2022/08/24 13:47:58;;;;;;;2.05;1.00;;;28.80;64.10;;;;;;5075535;28;20041;-67